createdAt,value
2018-08-23T00:01:32.039Z,22.90
2018-08-23T00:04:10.611Z,22.80
2018-08-23T00:06:48.800Z,22.70
2018-08-23T00:09:18.161Z,22.60
2018-08-23T00:11:48.009Z,22.60
2018-08-23T00:14:17.939Z,22.60
2018-08-23T00:16:48.141Z,22.30
2018-08-23T00:19:17.850Z,22.20
2018-08-23T00:21:49.183Z,22.30
2018-08-23T00:24:21.489Z,22.50
2018-08-23T00:26:59.551Z,22.60
2018-08-23T00:29:30.979Z,22.60
2018-08-23T00:32:05.350Z,22.60
2018-08-23T00:34:36.907Z,22.40
2018-08-23T00:37:06.794Z,22.30
2018-08-23T00:39:36.156Z,22.30
2018-08-23T00:42:12.964Z,22.20
2018-08-23T00:44:56.428Z,22.30
2018-08-23T00:47:28.060Z,22.20
2018-08-23T00:49:57.439Z,21.90
2018-08-23T00:52:48.360Z,21.90
2018-08-23T00:55:27.440Z,21.90
2018-08-23T00:57:56.781Z,21.90
2018-08-23T01:00:27.292Z,22.00
2018-08-23T01:02:59.034Z,21.90
2018-08-23T01:05:33.644Z,22.00
2018-08-23T01:08:03.524Z,22.10
2018-08-23T01:10:32.900Z,22.00
2018-08-23T01:13:03.037Z,21.90
2018-08-23T01:15:33.048Z,21.90
2018-08-23T01:18:11.892Z,21.80
2018-08-23T01:20:42.243Z,21.80
2018-08-23T01:23:11.610Z,21.90
2018-08-23T01:25:42.210Z,21.90
2018-08-23T01:28:11.634Z,21.90
2018-08-23T01:30:41.337Z,21.70
2018-08-23T01:33:14.857Z,21.80
2018-08-23T01:35:45.343Z,21.90
2018-08-23T01:38:15.192Z,21.80
2018-08-23T01:40:44.760Z,21.80
2018-08-23T01:43:14.155Z,22.00
2018-08-23T01:45:43.478Z,21.90
2018-08-23T01:48:12.830Z,21.90
2018-08-23T01:50:42.162Z,22.00
2018-08-23T01:53:11.584Z,22.10
2018-08-23T01:55:40.975Z,22.10
2018-08-23T01:58:10.361Z,21.90
2018-08-23T02:00:39.707Z,22.00
2018-08-23T02:03:09.102Z,22.00
2018-08-23T02:05:38.955Z,22.00
2018-08-23T02:08:08.382Z,21.90
2018-08-23T02:10:37.743Z,21.80
2018-08-23T02:13:15.143Z,21.60
2018-08-23T02:15:49.670Z,21.60
2018-08-23T02:18:19.462Z,21.50
2018-08-23T02:20:50.601Z,21.40
2018-08-23T02:23:20.647Z,21.30
2018-08-23T02:25:50.007Z,21.20
2018-08-23T02:28:19.385Z,21.00
2018-08-23T02:30:50.926Z,20.90
2018-08-23T02:33:20.350Z,20.80
2018-08-23T02:36:06.116Z,21.10
2018-08-23T02:38:36.215Z,21.30
2018-08-23T02:41:05.632Z,21.50
2018-08-23T02:43:35.020Z,21.30
2018-08-23T02:46:04.359Z,21.20
2018-08-23T02:48:33.708Z,20.90
2018-08-23T02:51:03.055Z,21.00
2018-08-23T02:53:37.356Z,21.00
2018-08-23T02:56:09.998Z,20.90
2018-08-23T02:59:02.318Z,20.90
2018-08-23T03:01:32.891Z,20.90
2018-08-23T03:04:12.185Z,21.00
2018-08-23T03:07:12.800Z,21.10
2018-08-23T03:09:45.385Z,21.10
2018-08-23T03:12:18.047Z,21.00
2018-08-23T03:14:47.785Z,20.90
2018-08-23T03:17:19.990Z,20.90
2018-08-23T03:19:59.543Z,20.90
2018-08-23T03:22:29.544Z,20.80
2018-08-23T03:25:00.389Z,20.70
2018-08-23T03:27:30.376Z,20.70
2018-08-23T03:30:00.143Z,20.60
2018-08-23T03:32:29.808Z,20.80
2018-08-23T03:34:59.735Z,20.80
2018-08-23T03:37:29.070Z,20.70
2018-08-23T03:39:58.635Z,20.60
2018-08-23T03:42:28.436Z,20.60
2018-08-23T03:44:58.628Z,20.60
2018-08-23T03:47:31.064Z,20.50
2018-08-23T03:50:00.964Z,20.40
2018-08-23T03:52:35.646Z,20.50
2018-08-23T03:55:05.529Z,20.70
2018-08-23T03:57:40.165Z,20.70
2018-08-23T04:00:09.540Z,20.50
2018-08-23T04:02:38.967Z,20.40
2018-08-23T04:05:13.981Z,20.10
2018-08-23T04:07:44.339Z,20.10
2018-08-23T04:10:13.774Z,20.20
2018-08-23T04:12:44.089Z,20.20
2018-08-23T04:15:29.231Z,20.00
2018-08-23T04:18:02.675Z,20.10
2018-08-23T04:20:32.325Z,20.10
2018-08-23T04:23:01.680Z,20.10
2018-08-23T04:25:31.079Z,20.10
2018-08-23T04:28:00.394Z,19.90
2018-08-23T04:30:29.800Z,19.60
2018-08-23T04:32:59.174Z,19.80
2018-08-23T04:35:29.465Z,19.90
2018-08-23T04:37:58.887Z,19.90
2018-08-23T04:40:28.376Z,19.90
2018-08-23T04:42:57.802Z,19.90
2018-08-23T04:45:28.754Z,19.90
2018-08-23T04:48:05.409Z,20.00
2018-08-23T04:50:34.864Z,20.00
2018-08-23T04:53:04.283Z,20.00
2018-08-23T04:55:34.083Z,19.90
2018-08-23T04:58:04.044Z,19.90
2018-08-23T05:00:33.527Z,20.00
2018-08-23T05:03:02.917Z,20.10
2018-08-23T05:05:32.316Z,20.30
2018-08-23T05:08:01.711Z,20.20
2018-08-23T05:10:31.116Z,20.00
2018-08-23T05:13:00.492Z,20.10
2018-08-23T05:15:29.860Z,20.30
2018-08-23T05:17:59.234Z,20.60
2018-08-23T05:20:28.633Z,20.80
2018-08-23T05:23:02.163Z,20.90
2018-08-23T05:25:31.611Z,21.00
2018-08-23T05:28:18.047Z,21.00
2018-08-23T05:30:48.145Z,20.90
2018-08-23T05:33:19.475Z,20.90
2018-08-23T05:35:48.808Z,21.00
2018-08-23T05:38:18.920Z,21.20
2018-08-23T05:40:54.384Z,21.40
2018-08-23T05:43:23.975Z,21.40
2018-08-23T05:45:54.788Z,21.50
2018-08-23T05:48:32.318Z,21.40
2018-08-23T05:51:14.738Z,21.50
2018-08-23T05:53:48.205Z,21.50
2018-08-23T05:56:19.233Z,21.80
2018-08-23T05:58:48.641Z,21.80
2018-08-23T06:01:18.405Z,21.90
2018-08-23T06:03:47.810Z,21.70
2018-08-23T06:06:17.191Z,21.60
2018-08-23T06:08:53.805Z,21.90
2018-08-23T06:11:23.168Z,22.50
2018-08-23T06:13:52.533Z,22.70
2018-08-23T06:16:22.604Z,22.80
2018-08-23T06:18:52.103Z,22.60
2018-08-23T06:21:21.461Z,22.90
2018-08-23T06:23:55.047Z,23.70
2018-08-23T06:26:49.283Z,24.30
2018-08-23T06:29:22.724Z,24.60
2018-08-23T06:32:00.339Z,24.90
2018-08-23T06:34:32.069Z,24.80
2018-08-23T06:37:01.807Z,24.40
2018-08-23T06:39:31.271Z,24.50
2018-08-23T06:42:02.325Z,24.40
2018-08-23T06:44:52.223Z,24.80
2018-08-23T06:47:22.819Z,24.60
2018-08-23T06:49:53.354Z,24.80
2018-08-23T06:52:34.922Z,25.30
2018-08-23T06:55:04.785Z,25.80
2018-08-23T06:57:40.630Z,25.60
2018-08-23T07:00:10.132Z,25.90
2018-08-23T07:02:48.831Z,26.20
2018-08-23T07:05:18.944Z,25.60
2018-08-23T07:07:48.365Z,25.20
2018-08-23T07:10:17.752Z,25.00
2018-08-23T07:12:47.127Z,24.90
2018-08-23T07:15:16.511Z,24.60
2018-08-23T07:17:46.011Z,24.40
2018-08-23T07:20:16.488Z,24.40
2018-08-23T07:22:45.874Z,24.40
2018-08-23T07:25:17.543Z,24.60
2018-08-23T07:27:47.022Z,24.60
2018-08-23T07:30:19.156Z,24.40
2018-08-23T07:32:49.820Z,24.40
2018-08-23T07:35:20.647Z,24.40
2018-08-23T07:37:51.336Z,24.10
2018-08-23T07:40:23.670Z,23.90
2018-08-23T07:42:54.404Z,23.80
2018-08-23T07:45:23.810Z,23.80
2018-08-23T07:47:54.504Z,23.70
2018-08-23T07:50:23.890Z,23.60
2018-08-23T07:52:54.261Z,23.70
2018-08-23T07:55:23.565Z,23.90
2018-08-23T07:57:52.879Z,23.90
2018-08-23T08:00:45.318Z,24.00
2018-08-23T08:03:15.475Z,24.10
2018-08-23T08:05:45.948Z,24.20
2018-08-23T08:08:15.267Z,24.20
2018-08-23T08:10:45.735Z,24.30
2018-08-23T08:13:15.117Z,24.30
2018-08-23T08:15:44.511Z,24.40
2018-08-23T08:18:19.655Z,24.40
2018-08-23T08:20:55.393Z,24.40
2018-08-23T08:23:24.705Z,24.40
2018-08-23T08:25:54.077Z,24.50
2018-08-23T08:28:23.414Z,24.90
2018-08-23T08:31:00.474Z,25.40
2018-08-23T08:33:34.687Z,25.70
2018-08-23T08:36:04.976Z,26.00
2018-08-23T08:38:34.878Z,26.10
2018-08-23T08:41:04.268Z,26.20
2018-08-23T08:43:33.647Z,26.10
2018-08-23T08:46:03.059Z,26.20
2018-08-23T08:48:33.584Z,26.30
2018-08-23T08:51:18.271Z,26.40
2018-08-23T08:53:47.876Z,26.10
2018-08-23T08:56:24.664Z,25.90
2018-08-23T08:58:54.023Z,25.70
2018-08-23T09:01:23.372Z,25.60
2018-08-23T09:03:52.718Z,25.50
2018-08-23T09:06:23.480Z,25.40
2018-08-23T09:08:52.887Z,25.40
2018-08-23T09:11:23.482Z,25.60
2018-08-23T09:13:52.871Z,25.50
2018-08-23T09:16:23.139Z,25.40
2018-08-23T09:19:00.319Z,25.40
2018-08-23T09:21:30.072Z,25.40
2018-08-23T09:24:09.375Z,25.30
2018-08-23T09:26:39.300Z,25.20
2018-08-23T09:29:22.444Z,25.00
2018-08-23T09:31:51.820Z,25.10
2018-08-23T09:34:21.208Z,25.20
2018-08-23T09:36:50.548Z,25.20
2018-08-23T09:39:19.919Z,25.20
2018-08-23T09:41:49.271Z,25.20
2018-08-23T09:44:18.641Z,24.90
2018-08-23T09:46:55.403Z,24.90
2018-08-23T09:49:24.756Z,24.90
2018-08-23T09:51:54.109Z,24.80
2018-08-23T09:54:29.215Z,24.60
2018-08-23T09:56:58.548Z,24.60
2018-08-23T09:59:28.388Z,24.50
2018-08-23T10:02:02.862Z,24.40
2018-08-23T10:04:37.593Z,24.50
2018-08-23T10:07:12.238Z,24.50
2018-08-23T10:09:47.235Z,24.50
2018-08-23T10:12:21.804Z,24.40
2018-08-23T10:14:56.569Z,24.40
2018-08-23T10:17:31.065Z,24.30
2018-08-23T10:20:05.626Z,24.30
2018-08-23T10:22:40.342Z,24.30
2018-08-23T10:25:27.798Z,24.20
2018-08-23T10:27:57.155Z,24.20
2018-08-23T10:30:27.139Z,24.10
2018-08-23T10:32:56.491Z,24.10
2018-08-23T10:35:25.885Z,24.10
2018-08-23T10:37:55.216Z,24.00
2018-08-23T10:40:25.036Z,23.90
2018-08-23T10:42:54.464Z,23.80
2018-08-23T10:45:23.872Z,23.80
2018-08-23T10:47:58.508Z,23.70
2018-08-23T10:50:27.952Z,23.60
2018-08-23T10:52:57.323Z,23.60
2018-08-23T10:55:26.711Z,23.60
2018-08-23T10:57:56.050Z,23.60
2018-08-23T11:00:25.452Z,23.50
2018-08-23T11:02:55.233Z,23.50
2018-08-23T11:05:24.599Z,23.40
2018-08-23T11:07:59.136Z,23.50
2018-08-23T11:10:33.833Z,23.60
2018-08-23T11:13:08.417Z,23.40
2018-08-23T11:15:37.808Z,23.40
2018-08-23T11:18:12.367Z,23.60
2018-08-23T11:20:44.555Z,23.60
2018-08-23T11:23:16.282Z,23.50
2018-08-23T11:25:45.705Z,23.50
2018-08-23T11:28:20.368Z,23.50
2018-08-23T11:30:50.183Z,23.40
2018-08-23T11:33:19.507Z,23.50
2018-08-23T11:35:48.895Z,23.50
2018-08-23T11:38:18.265Z,23.60
2018-08-23T11:40:47.625Z,23.60
2018-08-23T11:43:16.956Z,23.60
2018-08-23T11:45:46.379Z,23.60
2018-08-23T11:48:15.727Z,23.80
2018-08-23T11:50:45.123Z,23.70
2018-08-23T11:53:14.562Z,23.70
2018-08-23T11:55:44.078Z,23.60
2018-08-23T11:58:13.448Z,23.70
2018-08-23T12:00:43.220Z,23.80
2018-08-23T12:03:12.621Z,23.90
2018-08-23T12:05:41.989Z,23.90
2018-08-23T12:08:11.341Z,23.90
2018-08-23T12:10:40.698Z,24.10
2018-08-23T12:13:10.089Z,24.30
2018-08-23T12:15:39.463Z,24.40
2018-08-23T12:18:09.224Z,24.50
2018-08-23T12:20:38.551Z,24.90
2018-08-23T12:23:07.957Z,25.20
2018-08-23T12:25:37.377Z,25.60
2018-08-23T12:28:11.863Z,26.20
2018-08-23T12:30:42.161Z,26.70
2018-08-23T12:33:11.549Z,27.50
2018-08-23T12:35:40.885Z,28.00
2018-08-23T12:38:17.583Z,28.80
2018-08-23T12:40:52.313Z,28.00
2018-08-23T12:43:25.882Z,27.70
2018-08-23T12:46:00.272Z,27.80
2018-08-23T12:48:29.776Z,28.30
2018-08-23T12:50:59.351Z,29.10
2018-08-23T12:53:29.852Z,30.00
2018-08-23T12:55:59.171Z,30.00
2018-08-23T12:58:28.528Z,29.80
2018-08-23T13:00:57.875Z,30.40
2018-08-23T13:03:27.351Z,30.40
2018-08-23T13:05:56.856Z,30.50
2018-08-23T13:08:26.265Z,30.10
2018-08-23T13:10:55.642Z,29.60
2018-08-23T13:13:25.041Z,29.80
2018-08-23T13:15:54.569Z,30.40
2018-08-23T13:18:24.014Z,30.20
2018-08-23T13:20:53.529Z,29.80
2018-08-23T13:23:22.911Z,30.20
2018-08-23T13:25:55.914Z,30.60
2018-08-23T13:28:26.764Z,29.70
2018-08-23T13:30:58.032Z,30.20
2018-08-23T13:33:27.616Z,30.50
2018-08-23T13:35:56.945Z,30.50
2018-08-23T13:38:26.296Z,30.70
2018-08-23T13:40:55.661Z,30.20
2018-08-23T13:43:24.995Z,29.20
2018-08-23T13:45:54.398Z,28.80
2018-08-23T13:48:23.810Z,28.40
2018-08-23T13:50:53.156Z,28.30
2018-08-23T13:53:22.535Z,28.50
2018-08-23T13:55:51.925Z,28.30
2018-08-23T13:58:21.303Z,28.10
2018-08-23T14:00:50.684Z,28.10
2018-08-23T14:03:20.052Z,28.30
2018-08-23T14:05:49.467Z,28.40
2018-08-23T14:08:19.231Z,28.70
2018-08-23T14:10:48.614Z,28.70
2018-08-23T14:13:17.959Z,28.20
2018-08-23T14:15:52.645Z,28.00
2018-08-23T14:18:21.992Z,27.80
2018-08-23T14:20:51.823Z,28.00
2018-08-23T14:23:21.164Z,28.10
2018-08-23T14:25:50.723Z,28.30
2018-08-23T14:28:20.055Z,28.30
2018-08-23T14:30:49.420Z,28.60
2018-08-23T14:33:18.811Z,28.40
2018-08-23T14:35:48.176Z,28.30
2018-08-23T14:38:17.950Z,28.20
2018-08-23T14:40:47.309Z,28.00
2018-08-23T14:43:16.683Z,28.20
2018-08-23T14:45:46.100Z,28.20
2018-08-23T14:48:17.340Z,28.30
2018-08-23T14:50:50.867Z,28.30
2018-08-23T14:53:26.850Z,28.30
2018-08-23T14:56:01.588Z,28.30
2018-08-23T14:58:30.972Z,28.40
2018-08-23T15:01:00.433Z,28.70
2018-08-23T15:03:29.784Z,28.70
2018-08-23T15:05:59.255Z,28.70
2018-08-23T15:08:28.702Z,28.60
2018-08-23T15:10:58.076Z,28.60
2018-08-23T15:13:27.414Z,28.60
2018-08-23T15:15:56.821Z,28.40
2018-08-23T15:18:26.156Z,28.50
2018-08-23T15:20:55.687Z,28.30
2018-08-23T15:23:24.914Z,28.40
2018-08-23T15:25:54.350Z,28.60
2018-08-23T15:28:23.703Z,28.50
2018-08-23T15:30:53.043Z,28.40
2018-08-23T15:33:22.394Z,28.40
2018-08-23T15:35:51.903Z,28.40
2018-08-23T15:38:21.609Z,28.40
2018-08-23T15:40:51.894Z,28.40
2018-08-23T15:43:21.613Z,28.30
2018-08-23T15:45:51.066Z,28.20
2018-08-23T15:48:20.451Z,28.10
2018-08-23T15:50:49.961Z,28.00
2018-08-23T15:53:19.367Z,27.90
2018-08-23T15:55:48.783Z,27.90
2018-08-23T15:58:18.070Z,27.90
2018-08-23T16:00:47.499Z,27.80
2018-08-23T16:03:16.916Z,27.80
2018-08-23T16:05:46.478Z,27.60
2018-08-23T16:08:15.844Z,27.50
2018-08-23T16:10:45.208Z,27.40
2018-08-23T16:13:14.572Z,27.30
2018-08-23T16:15:43.922Z,27.30
2018-08-23T16:18:18.508Z,27.20
2018-08-23T16:20:55.492Z,27.10
2018-08-23T16:23:25.061Z,27.10
2018-08-23T16:25:54.402Z,27.00
2018-08-23T16:28:23.769Z,26.90
2018-08-23T16:30:53.115Z,26.90
2018-08-23T16:33:22.494Z,26.80
2018-08-23T16:35:51.835Z,26.80
2018-08-23T16:38:21.198Z,26.60
2018-08-23T16:40:50.568Z,26.50
2018-08-23T16:43:19.898Z,26.40
2018-08-23T16:45:49.260Z,26.40
2018-08-23T16:48:18.583Z,26.30
2018-08-23T16:50:47.963Z,26.40
2018-08-23T16:53:17.555Z,26.20
2018-08-23T16:55:46.804Z,26.20
2018-08-23T16:58:16.134Z,26.20
2018-08-23T17:00:45.517Z,26.20
2018-08-23T17:03:14.935Z,26.00
2018-08-23T17:05:44.328Z,26.00
2018-08-23T17:08:19.193Z,26.10
2018-08-23T17:10:48.547Z,26.00
2018-08-23T17:13:23.021Z,26.00
2018-08-23T17:15:57.745Z,26.00
2018-08-23T17:18:27.189Z,25.90
2018-08-23T17:20:56.506Z,25.80
2018-08-23T17:23:26.154Z,25.70
2018-08-23T17:25:55.587Z,25.60
2018-08-23T17:28:24.953Z,25.50
2018-08-23T17:30:54.310Z,25.50
2018-08-23T17:33:23.627Z,25.50
2018-08-23T17:35:53.100Z,25.50
2018-08-23T17:38:22.473Z,25.30
2018-08-23T17:40:52.220Z,25.10
2018-08-23T17:43:21.553Z,25.10
2018-08-23T17:45:51.743Z,25.00
2018-08-23T17:48:21.508Z,25.10
2018-08-23T17:50:50.865Z,25.10
2018-08-23T17:53:20.263Z,24.90
2018-08-23T17:55:49.626Z,24.90
2018-08-23T17:58:19.396Z,24.80
2018-08-23T18:00:48.760Z,24.80
2018-08-23T18:03:18.128Z,24.80
2018-08-23T18:05:47.440Z,24.70
2018-08-23T18:08:16.790Z,24.70
2018-08-23T18:10:46.128Z,24.80
2018-08-23T18:13:15.508Z,24.70
2018-08-23T18:15:50.217Z,24.60
2018-08-23T18:18:20.080Z,24.60
2018-08-23T18:20:49.581Z,24.50
2018-08-23T18:23:18.946Z,24.50
2018-08-23T18:25:48.348Z,24.40
2018-08-23T18:28:17.792Z,24.40
2018-08-23T18:30:47.344Z,24.50
2018-08-23T18:33:16.762Z,24.40
2018-08-23T18:35:46.229Z,24.40
2018-08-23T18:38:15.923Z,24.50
2018-08-23T18:40:45.539Z,24.50
2018-08-23T18:43:15.181Z,24.40
2018-08-23T18:45:44.756Z,24.30
2018-08-23T18:48:14.554Z,24.30
2018-08-23T18:50:43.934Z,24.20
2018-08-23T18:53:13.395Z,24.30
2018-08-23T18:55:42.929Z,24.30
2018-08-23T18:58:12.343Z,24.30
2018-08-23T19:00:42.128Z,24.20
2018-08-23T19:03:11.937Z,24.10
2018-08-23T19:05:41.512Z,24.00
2018-08-23T19:08:10.914Z,24.00
2018-08-23T19:10:40.540Z,24.10
2018-08-23T19:13:10.130Z,24.00
2018-08-23T19:15:44.693Z,24.00
2018-08-23T19:18:14.271Z,23.90
2018-08-23T19:20:43.832Z,23.90
2018-08-23T19:23:13.179Z,23.90
2018-08-23T19:25:42.563Z,23.80
2018-08-23T19:28:11.934Z,23.80
2018-08-23T19:30:41.336Z,23.80
2018-08-23T19:33:10.666Z,23.70
2018-08-23T19:35:40.035Z,23.80
2018-08-23T19:38:09.347Z,23.70
2018-08-23T19:40:39.182Z,23.70
2018-08-23T19:43:09.349Z,23.70
2018-08-23T19:45:43.990Z,23.80
2018-08-23T19:48:13.373Z,23.90
2018-08-23T19:50:42.792Z,23.80
2018-08-23T19:53:12.223Z,23.80
2018-08-23T19:55:41.660Z,23.90
2018-08-23T19:58:11.027Z,23.80
2018-08-23T20:00:40.589Z,23.70
2018-08-23T20:03:09.970Z,23.70
2018-08-23T20:05:39.377Z,23.60
2018-08-23T20:08:08.721Z,23.60
2018-08-23T20:10:38.119Z,23.60
2018-08-23T20:13:07.459Z,23.60
2018-08-23T20:15:36.853Z,23.60
2018-08-23T20:18:06.312Z,23.50
2018-08-23T20:20:35.675Z,23.60
2018-08-23T20:23:05.170Z,23.60
2018-08-23T20:25:34.986Z,23.50
2018-08-23T20:28:04.434Z,23.40
2018-08-23T20:30:33.828Z,23.30
2018-08-23T20:33:03.218Z,23.40
2018-08-23T20:35:32.665Z,23.40
2018-08-23T20:38:02.035Z,23.30
2018-08-23T20:40:31.421Z,23.30
2018-08-23T20:43:00.798Z,23.30
2018-08-23T20:45:30.245Z,23.30
2018-08-23T20:47:59.695Z,23.30
2018-08-23T20:50:29.515Z,23.20
2018-08-23T20:52:58.894Z,23.20
2018-08-23T20:55:28.391Z,23.20
2018-08-23T20:57:57.772Z,23.20
2018-08-23T21:00:27.243Z,23.20
2018-08-23T21:02:56.633Z,23.10
2018-08-23T21:05:26.091Z,22.90
2018-08-23T21:07:55.451Z,23.00
2018-08-23T21:10:24.867Z,23.00
2018-08-23T21:12:54.217Z,23.00
2018-08-23T21:15:23.643Z,23.00
2018-08-23T21:17:53.116Z,23.00
2018-08-23T21:20:22.478Z,22.90
2018-08-23T21:22:51.858Z,22.90
2018-08-23T21:25:21.192Z,22.90
2018-08-23T21:27:50.581Z,22.90
2018-08-23T21:30:19.925Z,22.80
2018-08-23T21:32:49.300Z,22.70
2018-08-23T21:35:18.803Z,22.70
2018-08-23T21:37:48.198Z,22.60
2018-08-23T21:40:17.544Z,22.60
2018-08-23T21:42:46.968Z,22.50
2018-08-23T21:45:16.787Z,22.60
2018-08-23T21:47:46.271Z,22.50
2018-08-23T21:50:15.615Z,22.50
2018-08-23T21:52:45.029Z,22.40
2018-08-23T21:55:14.400Z,22.40
2018-08-23T21:57:43.756Z,22.40
2018-08-23T22:00:13.136Z,22.30
2018-08-23T22:02:42.565Z,22.30
2018-08-23T22:05:12.141Z,22.30
2018-08-23T22:07:41.474Z,22.30
2018-08-23T22:10:10.878Z,22.20
2018-08-23T22:12:40.660Z,22.20
2018-08-23T22:15:10.078Z,22.30
2018-08-23T22:17:39.866Z,22.00
2018-08-23T22:20:09.271Z,22.00
2018-08-23T22:22:38.616Z,21.90
2018-08-23T22:25:08.024Z,21.80
2018-08-23T22:27:37.363Z,21.70
2018-08-23T22:30:07.123Z,21.70
2018-08-23T22:32:38.356Z,21.70
2018-08-23T22:35:07.848Z,21.70
2018-08-23T22:37:37.302Z,21.60
2018-08-23T22:40:06.764Z,21.50
2018-08-23T22:42:36.140Z,21.50
2018-08-23T22:45:05.579Z,21.40
2018-08-23T22:47:34.929Z,21.40
2018-08-23T22:50:04.365Z,21.30
2018-08-23T22:52:33.733Z,21.40
2018-08-23T22:55:03.119Z,21.30
2018-08-23T22:57:32.468Z,21.20
2018-08-23T23:00:01.805Z,21.10
2018-08-23T23:02:36.464Z,21.10
2018-08-23T23:05:06.025Z,21.10
2018-08-23T23:07:35.415Z,21.00
2018-08-23T23:10:05.341Z,20.90
2018-08-23T23:12:34.725Z,21.00
2018-08-23T23:15:11.368Z,20.90
2018-08-23T23:17:40.774Z,20.90
2018-08-23T23:20:10.121Z,20.80
2018-08-23T23:22:39.488Z,20.80
2018-08-23T23:25:08.849Z,20.70
2018-08-23T23:27:38.646Z,20.80
2018-08-23T23:30:08.013Z,20.70
2018-08-23T23:32:37.392Z,20.60
2018-08-23T23:35:06.843Z,20.60
2018-08-23T23:37:36.233Z,20.60
2018-08-23T23:40:05.597Z,20.60
2018-08-23T23:42:34.978Z,20.60
2018-08-23T23:45:04.628Z,20.70
2018-08-23T23:47:34.009Z,20.50
2018-08-23T23:50:03.468Z,20.50
2018-08-23T23:52:33.192Z,20.50
2018-08-23T23:55:02.592Z,20.50
2018-08-23T23:57:31.987Z,20.50
